createdAt,value
2023-04-19T00:01:35.764Z,59.59
2023-04-19T00:03:39.922Z,59.47
2023-04-19T00:05:43.532Z,59.29
2023-04-19T00:07:47.137Z,59.59
2023-04-19T00:09:50.480Z,59.61
2023-04-19T00:11:53.955Z,59.79
2023-04-19T00:13:57.265Z,59.81
2023-04-19T00:16:02.112Z,59.95
2023-04-19T00:18:05.582Z,59.94
2023-04-19T00:20:09.968Z,59.84
2023-04-19T00:22:13.387Z,59.86
2023-04-19T00:24:16.877Z,59.83
2023-04-19T00:26:20.434Z,59.97
2023-04-19T00:28:28.174Z,60.20
2023-04-19T00:30:31.735Z,60.13
2023-04-19T00:32:36.522Z,60.15
2023-04-19T00:34:40.041Z,60.33
2023-04-19T00:36:43.375Z,60.23
2023-04-19T00:38:46.676Z,60.27
2023-04-19T00:40:49.936Z,60.31
2023-04-19T00:42:53.218Z,60.37
2023-04-19T00:44:56.574Z,60.40
2023-04-19T00:47:01.052Z,60.50
2023-04-19T00:49:07.443Z,60.64
2023-04-19T00:51:10.921Z,60.59
2023-04-19T00:53:14.335Z,60.54
2023-04-19T00:55:17.756Z,60.41
2023-04-19T00:57:21.622Z,60.59
2023-04-19T00:59:27.567Z,60.55
2023-04-19T01:01:31.870Z,60.56
2023-04-19T01:03:36.464Z,60.46
2023-04-19T01:05:41.531Z,60.49
2023-04-19T01:07:49.405Z,60.53
2023-04-19T01:09:52.833Z,60.88
2023-04-19T01:11:58.746Z,60.61
2023-04-19T01:14:02.336Z,60.52
2023-04-19T01:16:07.422Z,60.73
2023-04-19T01:18:11.329Z,60.49
2023-04-19T01:20:15.404Z,61.00
2023-04-19T01:22:22.842Z,61.00
2023-04-19T01:24:26.177Z,61.13
2023-04-19T01:26:29.501Z,61.33
2023-04-19T01:28:33.020Z,61.33
2023-04-19T01:30:36.635Z,61.42
2023-04-19T01:32:40.031Z,61.27
2023-04-19T01:34:43.729Z,61.30
2023-04-19T01:36:47.075Z,61.72
2023-04-19T01:38:52.172Z,61.70
2023-04-19T01:40:57.220Z,61.93
2023-04-19T01:43:01.330Z,62.21
2023-04-19T01:45:05.364Z,62.08
2023-04-19T01:47:08.718Z,62.29
2023-04-19T01:49:12.291Z,62.01
2023-04-19T01:51:17.301Z,62.38
2023-04-19T01:53:20.621Z,62.54
2023-04-19T01:55:25.555Z,62.57
2023-04-19T01:57:29.712Z,62.55
2023-04-19T01:59:34.098Z,62.76
2023-04-19T02:01:37.602Z,62.77
2023-04-19T02:03:41.334Z,62.73
2023-04-19T02:05:44.871Z,62.81
2023-04-19T02:07:48.190Z,62.86
2023-04-19T02:09:51.666Z,62.96
2023-04-19T02:11:57.661Z,62.96
2023-04-19T02:14:01.132Z,63.11
2023-04-19T02:16:06.058Z,63.24
2023-04-19T02:18:09.729Z,63.32
2023-04-19T02:20:13.119Z,63.29
2023-04-19T02:22:16.499Z,63.36
2023-04-19T02:24:19.782Z,63.37
2023-04-19T02:26:24.526Z,63.42
2023-04-19T02:28:29.200Z,63.41
2023-04-19T02:30:32.633Z,63.37
2023-04-19T02:32:35.997Z,63.46
2023-04-19T02:34:39.496Z,63.60
2023-04-19T02:36:42.844Z,63.78
2023-04-19T02:38:46.180Z,63.83
2023-04-19T02:40:50.222Z,63.81
2023-04-19T02:42:53.594Z,63.82
2023-04-19T02:44:59.445Z,63.96
2023-04-19T02:47:02.831Z,64.07
2023-04-19T02:49:06.392Z,64.21
2023-04-19T02:51:09.880Z,64.26
2023-04-19T02:53:15.277Z,64.31
2023-04-19T02:55:19.151Z,64.39
2023-04-19T02:57:25.368Z,64.31
2023-04-19T02:59:28.957Z,64.80
2023-04-19T03:01:36.994Z,64.89
2023-04-19T03:03:42.755Z,64.92
2023-04-19T03:05:46.320Z,65.04
2023-04-19T03:07:49.735Z,65.42
2023-04-19T03:09:53.199Z,65.49
2023-04-19T03:11:56.976Z,65.72
2023-04-19T03:14:00.714Z,65.87
2023-04-19T03:16:04.411Z,66.14
2023-04-19T03:18:10.157Z,66.40
2023-04-19T03:20:17.045Z,66.49
2023-04-19T03:22:20.611Z,66.89
2023-04-19T03:24:29.055Z,67.17
2023-04-19T03:26:32.966Z,67.30
2023-04-19T03:28:37.794Z,67.73
2023-04-19T03:30:59.711Z,67.61
2023-04-19T03:33:03.225Z,67.71
2023-04-19T03:35:09.164Z,68.05
2023-04-19T03:37:12.880Z,68.06
2023-04-19T03:39:16.984Z,68.10
2023-04-19T03:41:24.994Z,68.14
2023-04-19T03:43:51.545Z,68.19
2023-04-19T03:45:55.750Z,68.33
2023-04-19T03:48:02.187Z,68.39
2023-04-19T03:50:09.259Z,68.71
2023-04-19T03:52:14.290Z,68.90
2023-04-19T03:54:18.060Z,68.86
2023-04-19T03:56:21.501Z,68.67
2023-04-19T03:58:25.213Z,68.97
2023-04-19T04:00:37.959Z,68.80
2023-04-19T04:02:41.625Z,68.86
2023-04-19T04:04:45.764Z,69.00
2023-04-19T04:06:51.247Z,69.08
2023-04-19T04:08:54.588Z,68.87
2023-04-19T04:10:58.128Z,69.20
2023-04-19T04:13:01.833Z,69.37
2023-04-19T04:15:16.246Z,69.29
2023-04-19T04:17:28.863Z,69.15
2023-04-19T04:19:35.244Z,69.10
2023-04-19T04:21:43.770Z,69.14
2023-04-19T04:23:54.819Z,69.07
2023-04-19T04:26:09.947Z,69.08
2023-04-19T04:28:36.473Z,68.88
2023-04-19T04:30:40.716Z,68.80
2023-04-19T04:32:47.531Z,68.68
2023-04-19T04:34:51.845Z,68.91
2023-04-19T04:37:03.923Z,68.74
2023-04-19T04:39:11.874Z,68.96
2023-04-19T04:41:16.610Z,68.66
2023-04-19T04:43:20.989Z,68.57
2023-04-19T04:45:24.766Z,68.34
2023-04-19T04:47:32.296Z,68.23
2023-04-19T04:49:38.157Z,68.42
2023-04-19T04:51:41.668Z,68.45
2023-04-19T04:53:45.703Z,68.29
2023-04-19T04:55:51.429Z,68.33
2023-04-19T04:57:55.290Z,68.20
2023-04-19T05:00:07.497Z,68.17
2023-04-19T05:02:19.661Z,68.11
2023-04-19T05:04:23.122Z,67.88
2023-04-19T05:06:27.259Z,68.02
2023-04-19T05:08:30.812Z,67.79
2023-04-19T05:10:46.518Z,67.73
2023-04-19T05:12:52.690Z,67.64
2023-04-19T05:14:56.405Z,67.39
2023-04-19T05:17:00.050Z,67.56
2023-04-19T05:19:03.502Z,67.75
2023-04-19T05:21:11.201Z,67.66
2023-04-19T05:23:16.035Z,67.52
2023-04-19T05:25:20.261Z,67.23
2023-04-19T05:27:23.760Z,67.11
2023-04-19T05:29:28.611Z,67.07
2023-04-19T05:31:33.060Z,66.78
2023-04-19T05:33:49.313Z,66.66
2023-04-19T05:35:52.711Z,66.73
2023-04-19T05:37:56.152Z,66.77
2023-04-19T05:40:00.827Z,66.38
2023-04-19T05:42:04.527Z,66.29
2023-04-19T05:44:08.203Z,66.22
2023-04-19T05:46:13.028Z,66.15
2023-04-19T05:48:16.716Z,65.95
2023-04-19T05:50:40.249Z,65.56
2023-04-19T05:53:13.015Z,65.81
2023-04-19T05:55:16.523Z,65.63
2023-04-19T05:57:22.312Z,65.49
2023-04-19T05:59:26.359Z,65.37
2023-04-19T06:01:31.403Z,64.98
2023-04-19T06:03:35.015Z,64.77
2023-04-19T06:05:40.359Z,64.38
2023-04-19T06:07:54.671Z,64.47
2023-04-19T06:09:58.913Z,64.54
2023-04-19T06:12:03.024Z,64.10
2023-04-19T06:14:06.504Z,63.82
2023-04-19T06:16:10.273Z,63.45
2023-04-19T06:18:19.816Z,63.03
2023-04-19T06:20:23.669Z,62.94
2023-04-19T06:22:27.210Z,62.49
2023-04-19T06:24:30.689Z,62.42
2023-04-19T06:26:34.097Z,62.21
2023-04-19T06:28:38.491Z,62.08
2023-04-19T06:30:41.857Z,65.86
2023-04-19T06:32:45.213Z,67.64
2023-04-19T06:34:49.942Z,66.47
2023-04-19T06:36:53.568Z,65.76
2023-04-19T06:38:56.857Z,64.38
2023-04-19T06:41:00.236Z,59.71
2023-04-19T06:43:05.849Z,59.13
2023-04-19T06:45:10.520Z,59.13
2023-04-19T06:47:14.167Z,58.94
2023-04-19T06:49:17.693Z,58.79
2023-04-19T06:51:22.802Z,58.23
2023-04-19T06:53:26.770Z,58.02
2023-04-19T06:55:30.264Z,57.58
2023-04-19T06:57:33.586Z,56.74
2023-04-19T06:59:39.785Z,56.89
2023-04-19T07:01:43.430Z,56.78
2023-04-19T07:03:47.264Z,56.74
2023-04-19T07:05:52.251Z,56.43
2023-04-19T07:07:57.139Z,56.21
2023-04-19T07:10:00.494Z,56.11
2023-04-19T07:12:03.921Z,55.97
2023-04-19T07:14:07.422Z,55.69
2023-04-19T07:16:10.822Z,55.56
2023-04-19T07:18:16.094Z,55.37
2023-04-19T07:20:19.381Z,55.11
2023-04-19T07:22:23.245Z,55.28
2023-04-19T07:24:29.695Z,55.48
2023-04-19T07:26:33.028Z,55.36
2023-04-19T07:28:36.428Z,55.14
2023-04-19T07:30:39.902Z,54.70
2023-04-19T07:32:43.299Z,54.70
2023-04-19T07:34:46.689Z,54.36
2023-04-19T07:36:50.000Z,54.54
2023-04-19T07:38:53.625Z,54.59
2023-04-19T07:40:58.608Z,54.21
2023-04-19T07:43:02.049Z,54.27
2023-04-19T07:45:09.137Z,54.32
2023-04-19T07:47:13.200Z,54.41
2023-04-19T07:49:16.966Z,54.23
2023-04-19T07:51:24.668Z,54.24
2023-04-19T07:53:27.982Z,54.09
2023-04-19T07:55:31.348Z,53.77
2023-04-19T07:57:36.779Z,53.64
2023-04-19T07:59:40.093Z,53.57
2023-04-19T08:01:43.740Z,53.83
2023-04-19T08:03:47.359Z,53.96
2023-04-19T08:05:51.003Z,53.80
2023-04-19T08:07:54.555Z,53.38
2023-04-19T08:09:58.320Z,53.07
2023-04-19T08:12:02.301Z,53.18
2023-04-19T08:14:15.209Z,53.47
2023-04-19T08:17:08.769Z,53.17
2023-04-19T08:18:53.983Z,52.72
2023-04-19T08:20:58.662Z,52.26
2023-04-19T08:23:10.381Z,51.58
2023-04-19T08:25:26.582Z,51.17
2023-04-19T08:27:29.948Z,49.85
2023-04-19T08:29:34.703Z,49.12
2023-04-19T08:31:38.456Z,48.54
2023-04-19T08:33:41.883Z,48.21
2023-04-19T08:35:45.578Z,47.93
2023-04-19T08:37:49.639Z,47.39
2023-04-19T08:39:53.112Z,47.40
2023-04-19T08:42:06.744Z,47.31
2023-04-19T08:44:14.570Z,47.11
2023-04-19T08:46:23.440Z,47.05
2023-04-19T08:48:28.386Z,46.53
2023-04-19T08:50:38.874Z,46.03
2023-04-19T08:52:56.125Z,45.95
2023-04-19T08:55:04.412Z,45.26
2023-04-19T08:57:08.581Z,45.37
2023-04-19T08:59:18.500Z,44.19
2023-04-19T09:01:34.022Z,43.98
2023-04-19T09:03:58.387Z,43.79
2023-04-19T09:06:04.913Z,43.69
2023-04-19T09:08:26.445Z,43.63
2023-04-19T09:10:29.796Z,43.45
2023-04-19T09:12:33.085Z,43.42
2023-04-19T09:14:59.869Z,43.26
2023-04-19T09:17:18.636Z,42.55
2023-04-19T09:19:25.123Z,42.71
2023-04-19T09:21:30.505Z,42.09
2023-04-19T09:23:33.886Z,41.57
2023-04-19T09:25:49.186Z,41.21
2023-04-19T09:28:10.912Z,40.96
2023-04-19T09:30:24.128Z,40.87
2023-04-19T09:32:47.908Z,40.91
2023-04-19T09:34:56.390Z,40.53
2023-04-19T09:37:17.892Z,39.86
2023-04-19T09:39:33.594Z,39.90
2023-04-19T09:41:38.928Z,40.21
2023-04-19T09:43:58.919Z,39.42
2023-04-19T09:46:06.376Z,38.83
2023-04-19T09:48:12.227Z,38.59
2023-04-19T09:50:23.905Z,38.08
2023-04-19T09:52:28.993Z,37.81
2023-04-19T09:54:32.916Z,37.81
2023-04-19T09:56:37.410Z,38.49
2023-04-19T09:58:49.967Z,38.47
2023-04-19T10:01:06.601Z,39.04
2023-04-19T10:03:17.032Z,38.36
2023-04-19T10:05:21.828Z,38.15
2023-04-19T10:07:30.789Z,38.10
2023-04-19T10:09:45.879Z,38.22
2023-04-19T10:12:03.223Z,37.89
2023-04-19T10:14:17.091Z,37.58
2023-04-19T10:16:20.919Z,36.65
2023-04-19T10:18:26.405Z,37.26
2023-04-19T10:20:36.873Z,36.69
2023-04-19T10:22:41.556Z,36.87
2023-04-19T10:25:09.605Z,35.60
2023-04-19T10:27:13.945Z,36.10
2023-04-19T10:29:17.482Z,35.96
2023-04-19T10:31:23.696Z,35.66
2023-04-19T10:33:31.520Z,35.64
2023-04-19T10:35:39.158Z,34.94
2023-04-19T10:37:42.903Z,35.02
2023-04-19T10:39:46.257Z,34.71
2023-04-19T10:41:59.267Z,34.18
2023-04-19T10:44:12.867Z,34.33
2023-04-19T10:46:36.978Z,34.13
2023-04-19T10:48:54.554Z,34.74
2023-04-19T10:51:01.471Z,34.54
2023-04-19T10:53:38.209Z,33.82
2023-04-19T10:55:51.529Z,33.97
2023-04-19T10:58:06.388Z,33.56
2023-04-19T11:00:20.707Z,32.86
2023-04-19T11:02:32.462Z,32.83
2023-04-19T11:05:14.378Z,31.69
2023-04-19T11:07:20.250Z,31.41
2023-04-19T11:09:24.508Z,31.32
2023-04-19T11:11:28.348Z,31.41
2023-04-19T11:13:31.873Z,30.54
2023-04-19T11:15:35.187Z,30.15
2023-04-19T11:17:39.530Z,29.73
2023-04-19T11:19:44.717Z,29.33
2023-04-19T11:21:49.239Z,29.45
2023-04-19T11:26:21.070Z,29.26
2023-04-19T11:28:24.670Z,29.03
2023-04-19T11:30:31.392Z,28.87
2023-04-19T11:32:35.049Z,29.37
2023-04-19T11:34:39.408Z,28.96
2023-04-19T11:36:50.738Z,28.27
2023-04-19T11:38:54.809Z,28.48
2023-04-19T11:41:01.593Z,28.59
2023-04-19T11:43:06.311Z,28.66
2023-04-19T11:45:26.077Z,29.17
2023-04-19T11:47:33.792Z,28.63
2023-04-19T11:49:37.147Z,27.86
2023-04-19T11:51:43.561Z,28.09
2023-04-19T11:53:47.192Z,28.48
2023-04-19T11:55:54.581Z,28.73
2023-04-19T11:57:57.962Z,27.95
2023-04-19T12:00:11.428Z,26.47
2023-04-19T12:02:19.447Z,27.47
2023-04-19T12:04:23.449Z,26.82
2023-04-19T12:06:28.487Z,27.64
2023-04-19T12:08:33.298Z,28.22
2023-04-19T12:10:36.910Z,27.74
2023-04-19T12:12:40.953Z,27.93
2023-04-19T12:14:53.426Z,28.19
2023-04-19T12:17:12.057Z,28.00
2023-04-19T12:19:17.725Z,27.57
2023-04-19T12:21:28.714Z,27.17
2023-04-19T12:23:32.087Z,27.06
2023-04-19T12:25:35.805Z,26.87
2023-04-19T12:27:41.483Z,26.09
2023-04-19T12:29:44.980Z,26.16
2023-04-19T12:31:48.283Z,25.61
2023-04-19T12:33:53.242Z,26.33
2023-04-19T12:35:56.613Z,25.21
2023-04-19T12:38:00.978Z,25.70
2023-04-19T12:40:05.207Z,24.78
2023-04-19T12:42:08.599Z,24.46
2023-04-19T12:44:12.089Z,23.76
2023-04-19T12:46:15.580Z,24.62
2023-04-19T12:48:19.052Z,23.64
2023-04-19T12:50:23.947Z,23.80
2023-04-19T12:52:28.069Z,23.19
2023-04-19T12:54:31.404Z,23.04
2023-04-19T12:56:35.054Z,23.14
2023-04-19T12:58:38.537Z,22.82
2023-04-19T13:00:41.841Z,22.94
2023-04-19T13:02:45.462Z,22.86
2023-04-19T13:04:49.190Z,22.54
2023-04-19T13:06:53.983Z,21.57
2023-04-19T13:09:00.884Z,21.82
2023-04-19T13:11:05.022Z,22.06
2023-04-19T13:13:08.294Z,21.81
2023-04-19T13:15:12.245Z,21.97
2023-04-19T13:17:15.688Z,22.16
2023-04-19T13:19:19.070Z,21.66
2023-04-19T13:21:23.489Z,22.15
2023-04-19T13:23:28.468Z,22.36
2023-04-19T13:25:31.821Z,22.14
2023-04-19T13:27:35.327Z,22.62
2023-04-19T13:29:38.749Z,21.55
2023-04-19T13:31:43.576Z,22.50
2023-04-19T13:33:47.611Z,21.46
2023-04-19T13:35:50.912Z,21.67
2023-04-19T13:37:54.420Z,21.90
2023-04-19T13:40:10.642Z,21.25
2023-04-19T13:42:19.336Z,22.23
2023-04-19T13:44:22.905Z,20.83
2023-04-19T13:46:26.515Z,20.58
2023-04-19T13:48:30.429Z,19.89
2023-04-19T13:50:34.071Z,19.70
2023-04-19T13:52:37.615Z,20.50
2023-04-19T13:54:40.924Z,20.51
2023-04-19T13:56:45.680Z,21.09
2023-04-19T13:58:49.091Z,21.04
2023-04-19T14:00:52.785Z,20.84
2023-04-19T14:02:57.370Z,21.18
2023-04-19T14:05:00.828Z,21.05
2023-04-19T14:07:04.437Z,21.82
2023-04-19T14:09:07.832Z,21.97
2023-04-19T14:11:11.337Z,22.29
2023-04-19T14:13:15.990Z,22.40
2023-04-19T14:15:19.509Z,22.26
2023-04-19T14:17:22.851Z,21.64
2023-04-19T14:19:26.212Z,21.55
2023-04-19T14:21:29.684Z,21.66
2023-04-19T14:23:34.355Z,21.52
2023-04-19T14:25:37.742Z,21.71
2023-04-19T14:27:41.107Z,21.10
2023-04-19T14:29:45.978Z,20.82
2023-04-19T14:31:49.478Z,20.19
2023-04-19T14:33:52.827Z,20.74
2023-04-19T14:35:56.210Z,19.98
2023-04-19T14:37:59.547Z,20.15
2023-04-19T14:40:02.864Z,20.87
2023-04-19T14:42:06.415Z,20.14
2023-04-19T14:44:09.806Z,20.78
2023-04-19T14:46:14.555Z,20.67
2023-04-19T14:48:19.593Z,20.66
2023-04-19T14:50:24.881Z,20.44
2023-04-19T14:52:30.128Z,20.45
2023-04-19T14:54:35.245Z,20.79
2023-04-19T14:56:39.040Z,21.05
2023-04-19T14:58:42.408Z,20.46
2023-04-19T15:00:45.795Z,20.21
2023-04-19T15:02:50.768Z,20.41
2023-04-19T15:04:54.839Z,21.17
2023-04-19T15:06:58.201Z,20.82
2023-04-19T15:09:01.628Z,21.67
2023-04-19T15:11:05.055Z,21.44
2023-04-19T15:13:08.509Z,22.43
2023-04-19T15:15:12.710Z,22.38
2023-04-19T15:17:16.678Z,21.72
2023-04-19T15:19:21.438Z,21.92
2023-04-19T15:21:25.056Z,21.92
2023-04-19T15:23:28.547Z,22.38
2023-04-19T15:25:32.004Z,22.29
2023-04-19T15:27:35.458Z,22.64
2023-04-19T15:29:40.164Z,22.24
2023-04-19T15:31:43.596Z,22.07
2023-04-19T15:33:47.515Z,22.09
2023-04-19T15:35:53.920Z,21.42
2023-04-19T15:37:57.328Z,21.00
2023-04-19T15:40:00.869Z,21.36
2023-04-19T15:42:04.401Z,20.97
2023-04-19T15:44:07.825Z,20.45
2023-04-19T15:46:13.312Z,20.21
2023-04-19T15:48:16.989Z,20.06
2023-04-19T15:50:20.596Z,19.98
2023-04-19T15:52:25.525Z,19.88
2023-04-19T15:54:29.454Z,19.96
2023-04-19T15:56:32.781Z,20.09
2023-04-19T15:58:36.171Z,20.75
2023-04-19T16:00:39.483Z,20.42
2023-04-19T16:02:43.112Z,20.40
2023-04-19T16:04:47.856Z,21.49
2023-04-19T16:06:51.837Z,20.59
2023-04-19T16:08:56.484Z,21.00
2023-04-19T16:10:59.826Z,19.55
2023-04-19T16:13:04.342Z,20.34
2023-04-19T16:15:09.129Z,21.21
2023-04-19T16:17:12.420Z,22.70
2023-04-19T16:19:15.909Z,21.59
2023-04-19T16:21:19.442Z,21.63
2023-04-19T16:23:24.734Z,22.50
2023-04-19T16:25:29.913Z,22.07
2023-04-19T16:27:33.270Z,22.18
2023-04-19T16:29:38.430Z,22.46
2023-04-19T16:31:41.882Z,22.11
2023-04-19T16:33:45.591Z,21.87
2023-04-19T16:35:49.035Z,22.90
2023-04-19T16:37:53.237Z,22.85
2023-04-19T16:39:58.023Z,22.66
2023-04-19T16:42:02.998Z,22.55
2023-04-19T16:44:06.367Z,22.63
2023-04-19T16:46:09.775Z,22.95
2023-04-19T16:48:13.544Z,22.96
2023-04-19T16:50:16.965Z,23.24
2023-04-19T16:52:20.285Z,23.62
2023-04-19T16:54:23.591Z,23.84
2023-04-19T16:56:27.144Z,23.87
2023-04-19T16:58:32.003Z,23.01
2023-04-19T17:00:35.552Z,23.56
2023-04-19T17:02:39.096Z,23.37
2023-04-19T17:04:43.461Z,23.10
2023-04-19T17:06:46.931Z,22.71
2023-04-19T17:08:50.335Z,23.01
2023-04-19T17:10:53.785Z,22.84
2023-04-19T17:12:57.102Z,23.28
2023-04-19T17:15:01.976Z,23.10
2023-04-19T17:17:06.477Z,22.82
2023-04-19T17:19:09.898Z,24.17
2023-04-19T17:21:16.013Z,23.47
2023-04-19T17:23:19.451Z,23.72
2023-04-19T17:25:23.020Z,22.53
2023-04-19T17:27:26.500Z,22.32
2023-04-19T17:29:29.935Z,23.18
2023-04-19T17:31:34.646Z,23.98
2023-04-19T17:33:38.658Z,24.28
2023-04-19T17:35:42.005Z,23.81
2023-04-19T17:37:45.364Z,25.07
2023-04-19T17:39:48.787Z,24.79
2023-04-19T17:41:52.088Z,24.49
2023-04-19T17:43:55.909Z,24.78
2023-04-19T17:45:59.624Z,27.18
2023-04-19T17:48:04.481Z,27.47
2023-04-19T17:50:10.236Z,25.79
2023-04-19T17:52:14.128Z,25.08
2023-04-19T17:54:17.446Z,25.09
2023-04-19T17:56:21.342Z,24.68
2023-04-19T17:58:26.652Z,24.92
2023-04-19T18:00:30.368Z,25.07
2023-04-19T18:02:33.876Z,24.69
2023-04-19T18:04:39.487Z,24.43
2023-04-19T18:06:43.027Z,24.24
2023-04-19T18:08:46.381Z,24.36
2023-04-19T18:10:49.721Z,24.53
2023-04-19T18:12:53.806Z,24.57
2023-04-19T18:14:57.229Z,24.36
2023-04-19T18:17:01.628Z,24.50
2023-04-19T18:19:05.059Z,24.66
2023-04-19T18:21:10.467Z,25.00
2023-04-19T18:23:13.869Z,25.26
2023-04-19T18:25:17.408Z,25.27
2023-04-19T18:27:20.850Z,25.20
2023-04-19T18:29:24.313Z,25.67
2023-04-19T18:31:27.767Z,26.05
2023-04-19T18:33:31.168Z,26.45
2023-04-19T18:35:36.490Z,26.87
2023-04-19T18:37:41.663Z,27.01
2023-04-19T18:39:47.644Z,27.17
2023-04-19T18:41:51.292Z,27.30
2023-04-19T18:44:24.826Z,27.31
2023-04-19T18:46:19.019Z,27.58
2023-04-19T18:48:22.845Z,27.55
2023-04-19T18:50:26.197Z,27.73
2023-04-19T18:52:29.637Z,27.82
2023-04-19T18:54:34.361Z,27.72
2023-04-19T18:58:44.036Z,28.21
2023-04-19T19:00:49.167Z,28.18
2023-04-19T19:02:53.235Z,28.28
2023-04-19T19:05:01.590Z,28.29
2023-04-19T19:07:17.987Z,28.30
2023-04-19T19:09:23.624Z,28.51
2023-04-19T19:11:51.847Z,28.58
2023-04-19T19:13:54.137Z,28.49
2023-04-19T19:15:57.497Z,28.69
2023-04-19T19:18:01.183Z,28.86
2023-04-19T19:20:06.627Z,28.94
2023-04-19T19:22:25.023Z,29.00
2023-04-19T19:24:30.687Z,28.97
2023-04-19T19:26:35.364Z,29.26
2023-04-19T19:28:38.812Z,29.21
2023-04-19T19:30:44.822Z,29.43
2023-04-19T19:32:48.293Z,29.46
2023-04-19T19:34:56.269Z,29.35
2023-04-19T19:37:02.114Z,29.47
2023-04-19T19:39:05.669Z,29.42
2023-04-19T19:41:51.511Z,29.50
2023-04-19T19:43:34.061Z,29.61
2023-04-19T19:45:40.303Z,29.84
2023-04-19T19:47:46.075Z,29.91
2023-04-19T19:50:17.482Z,29.51
2023-04-19T19:52:15.669Z,29.87
2023-04-19T19:54:19.093Z,30.07
2023-04-19T19:56:24.477Z,30.19
2023-04-19T19:58:48.336Z,29.99
2023-04-19T20:00:52.988Z,30.11
2023-04-19T20:02:57.261Z,30.13
2023-04-19T20:05:02.098Z,30.26
2023-04-19T20:09:12.266Z,30.27
2023-04-19T20:11:15.635Z,30.35
2023-04-19T20:13:19.175Z,30.64
2023-04-19T20:15:22.560Z,30.60
2023-04-19T20:17:27.316Z,30.63
2023-04-19T20:19:30.733Z,30.94
2023-04-19T20:21:34.052Z,30.95
2023-04-19T20:23:39.052Z,31.01
2023-04-19T20:25:42.413Z,31.15
2023-04-19T20:27:45.874Z,31.38
2023-04-19T20:29:49.137Z,31.31
2023-04-19T20:31:52.593Z,31.34
2023-04-19T20:33:57.445Z,31.32
2023-04-19T20:36:01.771Z,31.72
2023-04-19T20:38:07.718Z,31.39
2023-04-19T20:40:13.761Z,31.66
2023-04-19T20:42:17.249Z,31.80
2023-04-19T20:44:21.344Z,32.12
2023-04-19T20:46:25.127Z,32.21
2023-04-19T20:48:28.647Z,32.42
2023-04-19T20:50:33.495Z,32.47
2023-04-19T20:52:36.987Z,32.54
2023-04-19T20:54:40.761Z,32.42
2023-04-19T20:56:44.120Z,32.45
2023-04-19T20:58:47.559Z,32.47
2023-04-19T21:00:51.088Z,32.54
2023-04-19T21:02:54.816Z,32.57
2023-04-19T21:04:58.350Z,32.69
2023-04-19T21:07:03.129Z,32.63
2023-04-19T21:09:06.461Z,32.76
2023-04-19T21:11:09.852Z,33.00
2023-04-19T21:13:13.211Z,33.26
2023-04-19T21:15:16.969Z,33.08
2023-04-19T21:17:20.560Z,33.34
2023-04-19T21:19:23.925Z,33.44
2023-04-19T21:21:27.952Z,33.52
2023-04-19T21:23:32.711Z,33.70
2023-04-19T21:25:36.088Z,33.60
2023-04-19T21:27:40.288Z,33.62
2023-04-19T21:29:43.598Z,33.67
2023-04-19T21:31:47.076Z,33.75
2023-04-19T21:33:50.492Z,33.89
2023-04-19T21:35:53.796Z,33.92
2023-04-19T21:37:57.153Z,34.06
2023-04-19T21:40:02.124Z,34.23
2023-04-19T21:42:05.628Z,34.46
2023-04-19T21:44:09.041Z,34.33
2023-04-19T21:46:14.505Z,34.34
2023-04-19T21:48:17.932Z,34.34
2023-04-19T21:50:21.562Z,34.61
2023-04-19T21:52:24.952Z,34.50
2023-04-19T21:54:33.941Z,34.63
2023-04-19T21:56:39.932Z,34.74
2023-04-19T21:58:43.282Z,34.73
2023-04-19T22:00:46.741Z,34.92
2023-04-19T22:02:50.273Z,34.82
2023-04-19T22:04:53.838Z,34.80
2023-04-19T22:06:57.903Z,34.76
2023-04-19T22:09:02.785Z,35.08
2023-04-19T22:11:06.247Z,35.09
2023-04-19T22:13:10.900Z,35.43
2023-04-19T22:15:14.232Z,35.32
2023-04-19T22:17:18.617Z,35.63
2023-04-19T22:19:24.395Z,35.80
2023-04-19T22:21:27.756Z,35.88
2023-04-19T22:23:31.361Z,35.98
2023-04-19T22:25:34.681Z,36.06
2023-04-19T22:27:38.167Z,35.86
2023-04-19T22:29:42.925Z,36.25
2023-04-19T22:31:46.282Z,36.36
2023-04-19T22:33:49.654Z,36.35
2023-04-19T22:35:53.012Z,36.13
2023-04-19T22:37:56.370Z,36.55
2023-04-19T22:39:59.800Z,36.77
2023-04-19T22:42:03.318Z,36.76
2023-04-19T22:44:06.811Z,36.86
2023-04-19T22:46:13.048Z,37.30
2023-04-19T22:48:16.955Z,37.33
2023-04-19T22:50:20.312Z,37.24
2023-04-19T22:52:23.700Z,37.27
2023-04-19T22:54:27.064Z,37.48
2023-04-19T22:56:30.610Z,37.03
2023-04-19T22:58:33.969Z,37.37
2023-04-19T23:00:37.909Z,37.21
2023-04-19T23:02:42.691Z,37.44
2023-04-19T23:04:48.506Z,37.22
2023-04-19T23:06:52.525Z,37.26
2023-04-19T23:08:56.282Z,37.44
2023-04-19T23:10:59.825Z,37.35
2023-04-19T23:13:03.150Z,37.42
2023-04-19T23:15:08.063Z,37.63
2023-04-19T23:17:11.470Z,37.45
2023-04-19T23:19:17.248Z,37.23
2023-04-19T23:21:25.991Z,37.15
2023-04-19T23:23:33.377Z,37.37
2023-04-19T23:25:36.857Z,37.24
2023-04-19T23:27:40.270Z,37.57
2023-04-19T23:29:43.592Z,37.49
2023-04-19T23:31:47.222Z,37.40
2023-04-19T23:33:50.561Z,37.63
2023-04-19T23:35:55.353Z,37.69
2023-04-19T23:37:58.677Z,37.63
2023-04-19T23:40:01.982Z,37.39
2023-04-19T23:42:05.721Z,37.23
2023-04-19T23:44:09.056Z,37.05
2023-04-19T23:46:12.370Z,37.46
2023-04-19T23:48:15.908Z,37.17
2023-04-19T23:50:19.191Z,37.35
2023-04-19T23:52:23.899Z,37.30
2023-04-19T23:54:27.393Z,37.13
2023-04-19T23:56:30.718Z,36.76
2023-04-19T23:58:34.135Z,36.91
